createdAt,value
2023-02-15T00:00:33.132Z,63.77
2023-02-15T00:03:00.213Z,64.58
2023-02-15T00:05:27.243Z,64.52
2023-02-15T00:07:54.202Z,63.38
2023-02-15T00:10:21.107Z,63.18
2023-02-15T00:12:48.032Z,62.86
2023-02-15T00:15:15.019Z,64.21
2023-02-15T00:17:42.020Z,63.79
2023-02-15T00:20:09.431Z,63.22
2023-02-15T00:22:36.367Z,63.33
2023-02-15T00:25:03.569Z,63.59
2023-02-15T00:27:30.469Z,63.24
2023-02-15T00:29:57.423Z,63.54
2023-02-15T00:32:24.440Z,63.11
2023-02-15T00:34:51.315Z,63.25
2023-02-15T00:37:18.281Z,63.62
2023-02-15T00:39:47.796Z,63.94
2023-02-15T00:42:14.744Z,63.76
2023-02-15T00:44:41.652Z,63.17
2023-02-15T00:47:08.675Z,63.54
2023-02-15T00:49:35.553Z,63.53
2023-02-15T00:52:02.480Z,64.17
2023-02-15T00:54:29.432Z,63.91
2023-02-15T00:56:57.029Z,64.01
2023-02-15T00:59:23.948Z,64.32
2023-02-15T01:01:51.035Z,64.67
2023-02-15T01:04:19.974Z,65.45
2023-02-15T01:06:46.976Z,64.85
2023-02-15T01:09:13.924Z,64.29
2023-02-15T01:11:40.918Z,65.10
2023-02-15T01:14:07.919Z,64.87
2023-02-15T01:16:38.916Z,64.84
2023-02-15T01:19:06.250Z,63.74
2023-02-15T01:21:33.294Z,63.50
2023-02-15T01:24:00.268Z,63.31
2023-02-15T01:26:27.874Z,63.00
2023-02-15T01:28:54.898Z,62.58
2023-02-15T01:31:23.796Z,63.34
2023-02-15T01:33:51.093Z,63.32
2023-02-15T01:36:17.997Z,63.08
2023-02-15T01:38:44.932Z,63.91
2023-02-15T01:41:11.877Z,64.13
2023-02-15T01:43:50.641Z,63.85
2023-02-15T01:46:23.293Z,64.39
2023-02-15T01:48:56.619Z,63.79
2023-02-15T01:51:28.051Z,63.62
2023-02-15T01:54:10.029Z,64.65
2023-02-15T01:56:39.307Z,63.56
2023-02-15T01:59:15.417Z,64.30
2023-02-15T02:01:42.814Z,64.85
2023-02-15T02:04:26.706Z,64.47
2023-02-15T02:06:55.823Z,63.76
2023-02-15T02:09:22.761Z,63.89
2023-02-15T02:11:50.577Z,64.31
2023-02-15T02:14:18.713Z,64.90
2023-02-15T02:17:04.590Z,64.49
2023-02-15T02:20:08.608Z,63.92
2023-02-15T02:22:53.749Z,63.09
2023-02-15T02:25:42.207Z,63.79
2023-02-15T02:28:18.221Z,62.89
2023-02-15T02:30:55.540Z,62.55
2023-02-15T02:33:36.023Z,62.53
2023-02-15T02:36:46.387Z,63.44
2023-02-15T02:39:38.714Z,64.00
2023-02-15T02:42:20.344Z,63.88
2023-02-15T02:45:28.489Z,64.02
2023-02-15T02:48:07.459Z,63.42
2023-02-15T02:50:34.483Z,63.79
2023-02-15T02:53:01.845Z,65.37
2023-02-15T02:55:50.119Z,64.42
2023-02-15T02:58:24.132Z,63.54
2023-02-15T03:01:02.703Z,63.87
2023-02-15T03:03:50.304Z,63.84
2023-02-15T03:06:26.538Z,65.49
2023-02-15T03:09:07.517Z,65.53
2023-02-15T03:11:35.353Z,64.64
2023-02-15T03:14:03.332Z,65.08
2023-02-15T03:16:32.637Z,64.77
2023-02-15T03:19:14.385Z,65.51
2023-02-15T03:21:52.513Z,64.56
2023-02-15T03:24:27.390Z,64.06
2023-02-15T03:26:55.913Z,63.86
2023-02-15T03:29:27.517Z,64.16
2023-02-15T03:32:01.936Z,63.48
2023-02-15T03:34:29.635Z,63.82
2023-02-15T03:36:59.099Z,62.68
2023-02-15T03:39:50.005Z,63.17
2023-02-15T03:42:29.122Z,63.14
2023-02-15T03:45:10.477Z,63.01
2023-02-15T03:47:45.690Z,63.24
2023-02-15T03:50:15.898Z,62.83
2023-02-15T03:52:42.941Z,62.75
2023-02-15T03:55:09.946Z,62.13
2023-02-15T03:57:38.691Z,62.91
2023-02-15T04:00:16.388Z,63.83
2023-02-15T04:03:13.915Z,63.38
2023-02-15T04:05:41.833Z,64.95
2023-02-15T04:08:09.308Z,63.90
2023-02-15T04:10:36.574Z,64.99
2023-02-15T04:13:03.618Z,65.35
2023-02-15T04:15:30.561Z,65.18
2023-02-15T04:17:57.546Z,65.40
2023-02-15T04:20:24.514Z,65.97
2023-02-15T04:22:51.368Z,66.20
2023-02-15T04:25:18.436Z,66.19
2023-02-15T04:27:48.532Z,65.54
2023-02-15T04:30:16.990Z,64.75
2023-02-15T04:32:44.093Z,64.63
2023-02-15T04:35:12.040Z,65.23
2023-02-15T04:37:40.287Z,65.26
2023-02-15T04:40:08.725Z,64.90
2023-02-15T04:42:35.716Z,65.68
2023-02-15T04:45:03.282Z,65.20
2023-02-15T04:47:30.438Z,65.37
2023-02-15T04:49:58.269Z,64.61
2023-02-15T04:52:25.709Z,63.97
2023-02-15T04:54:52.701Z,64.96
2023-02-15T04:57:19.717Z,63.77
2023-02-15T04:59:46.650Z,64.03
2023-02-15T05:02:13.604Z,63.70
2023-02-15T05:04:40.665Z,63.81
2023-02-15T05:07:07.563Z,63.11
2023-02-15T05:09:34.619Z,63.40
2023-02-15T05:12:01.481Z,63.22
2023-02-15T05:14:28.561Z,63.05
2023-02-15T05:16:55.572Z,63.71
2023-02-15T05:19:22.536Z,63.85
2023-02-15T05:21:49.451Z,62.91
2023-02-15T05:24:16.570Z,62.39
2023-02-15T05:26:43.470Z,63.66
2023-02-15T05:29:11.351Z,63.76
2023-02-15T05:31:39.093Z,63.39
2023-02-15T05:34:06.282Z,63.10
2023-02-15T05:36:33.367Z,62.82
2023-02-15T05:39:00.347Z,62.04
2023-02-15T05:41:27.343Z,61.74
2023-02-15T05:43:56.689Z,62.16
2023-02-15T05:46:23.630Z,62.02
2023-02-15T05:48:50.641Z,62.00
2023-02-15T05:51:18.969Z,61.42
2023-02-15T05:53:46.040Z,61.10
2023-02-15T05:56:13.700Z,62.19
2023-02-15T05:58:42.524Z,60.67
2023-02-15T06:01:09.360Z,60.71
2023-02-15T06:03:36.438Z,60.08
2023-02-15T06:06:03.650Z,59.94
2023-02-15T06:08:32.068Z,60.05
2023-02-15T06:10:58.923Z,58.64
2023-02-15T06:13:26.586Z,59.25
2023-02-15T06:15:53.709Z,58.06
2023-02-15T06:18:20.659Z,57.78
2023-02-15T06:20:47.969Z,58.01
2023-02-15T06:23:15.071Z,57.10
2023-02-15T06:25:42.383Z,56.53
2023-02-15T06:28:09.310Z,56.59
2023-02-15T06:30:36.215Z,56.47
2023-02-15T06:33:03.366Z,55.92
2023-02-15T06:35:30.411Z,55.73
2023-02-15T06:37:57.448Z,55.75
2023-02-15T06:40:24.574Z,54.95
2023-02-15T06:42:51.609Z,55.91
2023-02-15T06:45:18.538Z,55.77
2023-02-15T06:47:45.461Z,56.07
2023-02-15T06:50:12.715Z,56.49
2023-02-15T06:52:39.710Z,54.99
2023-02-15T06:55:07.172Z,55.20
2023-02-15T06:57:34.230Z,54.73
2023-02-15T07:00:01.152Z,56.13
2023-02-15T07:02:28.213Z,56.22
2023-02-15T07:04:55.227Z,55.94
2023-02-15T07:07:22.207Z,56.13
2023-02-15T07:09:49.089Z,55.94
2023-02-15T07:12:16.284Z,56.67
2023-02-15T07:14:43.213Z,56.18
2023-02-15T07:17:27.485Z,56.15
2023-02-15T07:19:57.194Z,56.89
2023-02-15T07:22:24.147Z,56.60
2023-02-15T07:24:51.101Z,56.54
2023-02-15T07:27:18.035Z,57.56
2023-02-15T07:29:45.004Z,55.06
2023-02-15T07:32:11.920Z,56.59
2023-02-15T07:34:38.901Z,55.83
2023-02-15T07:37:05.788Z,55.75
2023-02-15T07:39:32.842Z,55.74
2023-02-15T07:42:01.341Z,54.99
2023-02-15T07:44:31.308Z,53.52
2023-02-15T07:46:59.398Z,53.60
2023-02-15T07:49:26.291Z,52.67
2023-02-15T07:51:53.188Z,51.72
2023-02-15T07:54:20.152Z,51.41
2023-02-15T07:56:47.134Z,51.93
2023-02-15T07:59:14.407Z,51.19
2023-02-15T08:01:41.385Z,50.87
2023-02-15T08:04:09.391Z,51.12
2023-02-15T08:06:37.318Z,51.13
2023-02-15T08:09:09.570Z,51.66
2023-02-15T08:11:38.242Z,51.26
2023-02-15T08:14:17.795Z,51.17
2023-02-15T08:16:56.610Z,50.86
2023-02-15T08:19:29.311Z,51.35
2023-02-15T08:21:59.139Z,51.76
2023-02-15T08:24:28.494Z,51.16
2023-02-15T08:26:56.537Z,51.60
2023-02-15T08:29:26.416Z,51.83
2023-02-15T08:31:58.934Z,51.79
2023-02-15T08:34:26.070Z,51.68
2023-02-15T08:36:52.918Z,51.29
2023-02-15T08:39:19.869Z,51.09
2023-02-15T08:41:50.890Z,51.47
2023-02-15T08:44:20.100Z,52.54
2023-02-15T08:46:48.898Z,52.05
2023-02-15T08:49:22.202Z,52.04
2023-02-15T08:51:50.336Z,51.61
2023-02-15T08:54:20.692Z,51.99
2023-02-15T08:56:48.289Z,52.04
2023-02-15T08:59:20.205Z,51.52
2023-02-15T09:01:48.589Z,51.76
2023-02-15T09:04:15.681Z,51.69
2023-02-15T09:06:43.811Z,51.87
2023-02-15T09:09:12.032Z,51.62
2023-02-15T09:11:42.254Z,51.03
2023-02-15T09:14:14.826Z,50.47
2023-02-15T09:16:43.705Z,51.18
2023-02-15T09:19:10.686Z,50.52
2023-02-15T09:21:39.600Z,50.85
2023-02-15T09:24:10.355Z,50.40
2023-02-15T09:26:40.422Z,51.04
2023-02-15T09:29:08.170Z,50.38
2023-02-15T09:31:40.064Z,50.37
2023-02-15T09:34:07.131Z,50.52
2023-02-15T09:36:38.846Z,50.35
2023-02-15T09:39:18.554Z,49.96
2023-02-15T09:42:22.737Z,50.92
2023-02-15T09:45:13.188Z,50.27
2023-02-15T09:48:04.232Z,49.96
2023-02-15T09:50:41.233Z,50.25
2023-02-15T09:53:23.467Z,50.34
2023-02-15T09:56:31.745Z,49.88
2023-02-15T09:59:39.053Z,50.18
2023-02-15T10:02:27.316Z,49.04
2023-02-15T10:05:20.381Z,49.65
2023-02-15T10:08:15.449Z,48.83
2023-02-15T10:10:48.175Z,49.26
2023-02-15T10:13:23.178Z,48.53
2023-02-15T10:16:11.486Z,49.28
2023-02-15T10:18:43.983Z,48.25
2023-02-15T10:21:20.229Z,48.80
2023-02-15T10:24:13.434Z,48.43
2023-02-15T10:26:48.820Z,48.75
2023-02-15T10:29:15.746Z,48.62
2023-02-15T10:32:05.390Z,48.33
2023-02-15T10:35:08.127Z,48.51
2023-02-15T10:37:53.714Z,48.14
2023-02-15T10:40:35.264Z,49.22
2023-02-15T10:43:31.860Z,48.66
2023-02-15T10:46:28.400Z,48.17
2023-02-15T10:50:03.130Z,48.15
2023-02-15T10:52:49.023Z,47.59
2023-02-15T10:55:26.062Z,48.03
2023-02-15T10:58:16.026Z,46.96
2023-02-15T11:01:04.435Z,46.97
2023-02-15T11:03:42.197Z,47.91
2023-02-15T11:06:15.530Z,47.25
2023-02-15T11:08:47.877Z,46.58
2023-02-15T11:11:46.270Z,47.74
2023-02-15T11:14:24.882Z,47.80
2023-02-15T11:16:57.180Z,47.47
2023-02-15T11:19:32.202Z,47.63
2023-02-15T11:22:07.356Z,47.59
2023-02-15T11:24:43.126Z,47.54
2023-02-15T11:27:19.010Z,47.72
2023-02-15T11:29:55.995Z,49.11
2023-02-15T11:32:32.397Z,49.04
2023-02-15T11:35:13.367Z,48.93
2023-02-15T11:37:55.139Z,49.21
2023-02-15T11:40:30.122Z,48.97
2023-02-15T11:43:01.816Z,48.75
2023-02-15T11:45:31.671Z,49.62
2023-02-15T11:48:00.461Z,50.74
2023-02-15T11:50:32.063Z,49.93
2023-02-15T11:53:05.084Z,50.28
2023-02-15T11:55:32.526Z,48.97
2023-02-15T11:58:24.563Z,49.26
2023-02-15T12:00:57.171Z,49.19
2023-02-15T12:03:45.167Z,49.81
2023-02-15T12:06:38.938Z,48.97
2023-02-15T12:09:18.832Z,49.85
2023-02-15T12:11:45.990Z,50.05
2023-02-15T12:14:14.083Z,49.77
2023-02-15T12:16:42.421Z,49.28
2023-02-15T12:19:50.399Z,48.83
2023-02-15T12:22:27.732Z,49.22
2023-02-15T12:24:59.525Z,48.52
2023-02-15T12:27:35.943Z,48.75
2023-02-15T12:30:20.984Z,49.20
2023-02-15T12:33:24.100Z,48.83
2023-02-15T12:36:18.251Z,49.22
2023-02-15T12:39:23.226Z,48.75
2023-02-15T12:41:56.400Z,49.06
2023-02-15T12:44:26.821Z,49.80
2023-02-15T12:47:21.417Z,49.84
2023-02-15T12:50:12.209Z,50.23
2023-02-15T12:52:40.165Z,49.01
2023-02-15T12:55:33.601Z,50.09
2023-02-15T12:58:18.505Z,49.48
2023-02-15T13:00:46.574Z,50.19
2023-02-15T13:03:23.003Z,49.92
2023-02-15T13:06:06.944Z,49.58
2023-02-15T13:08:46.685Z,50.54
2023-02-15T13:11:13.849Z,50.41
2023-02-15T13:13:59.818Z,50.04
2023-02-15T13:16:39.755Z,49.50
2023-02-15T13:19:20.405Z,49.92
2023-02-15T13:21:51.103Z,49.28
2023-02-15T13:24:39.414Z,50.00
2023-02-15T13:27:15.763Z,50.21
2023-02-15T13:29:54.636Z,49.79
2023-02-15T13:32:43.119Z,51.00
2023-02-15T13:35:18.300Z,50.59
2023-02-15T13:38:14.766Z,51.01
2023-02-15T13:40:53.586Z,50.84
2023-02-15T13:43:44.858Z,51.27
2023-02-15T13:46:37.874Z,50.21
2023-02-15T13:49:31.558Z,51.12
2023-02-15T13:52:25.511Z,50.52
2023-02-15T13:55:37.670Z,52.23
2023-02-15T13:58:28.755Z,52.67
2023-02-15T14:01:35.570Z,53.16
2023-02-15T14:04:21.166Z,53.23
2023-02-15T14:07:03.998Z,53.62
2023-02-15T14:10:00.226Z,53.36
2023-02-15T14:12:50.503Z,53.61
2023-02-15T14:15:46.670Z,53.91
2023-02-15T14:18:31.186Z,53.92
2023-02-15T14:21:22.906Z,54.16
2023-02-15T14:24:10.197Z,53.62
2023-02-15T14:26:48.570Z,53.66
2023-02-15T14:29:55.752Z,54.15
2023-02-15T14:32:27.546Z,53.36
2023-02-15T14:35:03.679Z,53.94
2023-02-15T14:38:07.167Z,53.23
2023-02-15T14:40:50.141Z,53.57
2023-02-15T14:43:40.592Z,52.40
2023-02-15T14:46:51.390Z,53.33
2023-02-15T14:49:28.758Z,53.79
2023-02-15T14:51:58.413Z,54.15
2023-02-15T14:54:25.279Z,53.17
2023-02-15T14:57:01.432Z,53.61
2023-02-15T15:00:06.793Z,54.55
2023-02-15T15:02:49.649Z,54.13
2023-02-15T15:05:19.770Z,53.94
2023-02-15T15:07:57.646Z,54.35
2023-02-15T15:10:25.597Z,55.01
2023-02-15T15:12:59.024Z,55.14
2023-02-15T15:15:28.910Z,54.67
2023-02-15T15:18:31.028Z,54.81
2023-02-15T15:20:58.074Z,55.19
2023-02-15T15:23:44.962Z,55.28
2023-02-15T15:26:37.889Z,55.58
2023-02-15T15:29:08.251Z,55.55
2023-02-15T15:31:55.893Z,55.82
2023-02-15T15:34:48.703Z,55.27
2023-02-15T15:37:46.222Z,56.25
2023-02-15T15:40:51.162Z,55.51
2023-02-15T15:43:35.545Z,56.10
2023-02-15T15:46:12.509Z,56.62
2023-02-15T15:48:44.041Z,56.98
2023-02-15T15:51:31.030Z,56.93
2023-02-15T15:53:58.642Z,56.81
2023-02-15T15:56:30.646Z,57.33
2023-02-15T15:59:08.181Z,57.39
2023-02-15T16:01:43.646Z,58.41
2023-02-15T16:04:23.157Z,57.25
2023-02-15T16:06:50.494Z,57.90
2023-02-15T16:09:30.759Z,59.34
2023-02-15T16:12:00.842Z,58.26
2023-02-15T16:14:38.992Z,59.56
2023-02-15T16:17:15.320Z,59.89
2023-02-15T16:19:54.212Z,61.20
2023-02-15T16:22:27.181Z,60.04
2023-02-15T16:24:54.593Z,61.15
2023-02-15T16:27:31.345Z,62.03
2023-02-15T16:29:59.032Z,60.70
2023-02-15T16:32:40.295Z,60.50
2023-02-15T16:35:15.974Z,60.66
2023-02-15T16:37:43.197Z,60.30
2023-02-15T16:40:46.964Z,61.15
2023-02-15T16:43:21.934Z,61.25
2023-02-15T16:45:49.278Z,61.04
2023-02-15T16:48:24.049Z,61.97
2023-02-15T16:50:58.823Z,61.59
2023-02-15T16:53:28.825Z,61.07
2023-02-15T16:56:00.762Z,61.67
2023-02-15T16:58:47.112Z,61.77
2023-02-15T17:01:16.905Z,62.29
2023-02-15T17:03:44.097Z,62.36
2023-02-15T17:06:28.145Z,61.88
2023-02-15T17:09:04.924Z,61.72
2023-02-15T17:11:46.112Z,61.69
2023-02-15T17:14:21.512Z,61.76
2023-02-15T17:16:53.744Z,61.18
2023-02-15T17:19:24.862Z,61.71
2023-02-15T17:21:55.443Z,62.06
2023-02-15T17:24:34.790Z,62.16
2023-02-15T17:27:06.533Z,62.63
2023-02-15T17:29:57.757Z,61.90
2023-02-15T17:32:28.854Z,61.39
2023-02-15T17:35:25.761Z,62.20
2023-02-15T17:38:03.225Z,61.84
2023-02-15T17:40:36.312Z,61.58
2023-02-15T17:43:03.273Z,62.34
2023-02-15T17:45:40.629Z,61.82
2023-02-15T17:48:11.226Z,61.73
2023-02-15T17:50:38.843Z,61.47
2023-02-15T17:53:09.939Z,61.12
2023-02-15T17:55:37.048Z,61.75
2023-02-15T17:58:07.167Z,61.22
2023-02-15T18:00:39.116Z,59.83
2023-02-15T18:03:12.255Z,59.91
2023-02-15T18:05:42.232Z,60.04
2023-02-15T18:08:18.093Z,59.69
2023-02-15T18:10:46.133Z,59.55
2023-02-15T18:13:13.257Z,59.80
2023-02-15T18:15:40.632Z,59.31
2023-02-15T18:18:12.405Z,59.25
2023-02-15T18:20:39.422Z,58.74
2023-02-15T18:23:07.080Z,58.92
2023-02-15T18:25:34.157Z,58.56
2023-02-15T18:28:01.567Z,58.90
2023-02-15T18:30:29.145Z,58.51
2023-02-15T18:32:59.646Z,59.06
2023-02-15T18:35:31.565Z,58.84
2023-02-15T18:38:00.090Z,58.92
2023-02-15T18:40:28.937Z,59.02
2023-02-15T18:42:56.056Z,58.86
2023-02-15T18:45:28.800Z,59.26
2023-02-15T18:47:55.895Z,59.54
2023-02-15T18:50:26.162Z,59.14
2023-02-15T18:52:53.333Z,60.01
2023-02-15T18:55:28.165Z,59.61
2023-02-15T18:57:58.947Z,59.08
2023-02-15T19:00:29.415Z,58.66
2023-02-15T19:02:57.203Z,58.61
2023-02-15T19:05:26.624Z,58.32
2023-02-15T19:07:54.132Z,58.69
2023-02-15T19:10:27.199Z,58.16
2023-02-15T19:12:55.991Z,58.28
2023-02-15T19:15:30.032Z,58.06
2023-02-15T19:17:57.097Z,58.28
2023-02-15T19:20:28.054Z,58.00
2023-02-15T19:22:57.901Z,57.98
2023-02-15T19:25:28.773Z,57.78
2023-02-15T19:27:57.053Z,57.43
2023-02-15T19:30:27.696Z,57.65
2023-02-15T19:32:54.848Z,57.59
2023-02-15T19:35:25.270Z,56.90
2023-02-15T19:37:54.644Z,57.42
2023-02-15T19:40:24.398Z,57.03
2023-02-15T19:42:51.951Z,57.39
2023-02-15T19:45:22.229Z,56.99
2023-02-15T19:47:51.033Z,56.69
2023-02-15T19:50:23.303Z,56.80
2023-02-15T19:52:50.801Z,57.38
2023-02-15T19:55:44.989Z,57.60
2023-02-15T19:58:12.806Z,58.47
2023-02-15T20:00:40.452Z,58.70
2023-02-15T20:03:07.595Z,58.53
2023-02-15T20:05:35.923Z,59.04
2023-02-15T20:08:07.200Z,59.46
2023-02-15T20:10:35.381Z,59.64
2023-02-15T20:13:03.122Z,59.05
2023-02-15T20:15:35.216Z,59.07
2023-02-15T20:18:03.618Z,59.47
2023-02-15T20:20:54.860Z,59.93
2023-02-15T20:23:26.008Z,59.62
2023-02-15T20:25:53.677Z,59.69
2023-02-15T20:28:23.344Z,59.93
2023-02-15T20:30:50.853Z,59.69
2023-02-15T20:33:18.934Z,59.48
2023-02-15T20:35:46.994Z,59.43
2023-02-15T20:38:28.900Z,59.35
2023-02-15T20:40:57.501Z,59.23
2023-02-15T20:43:24.364Z,59.82
2023-02-15T20:45:51.320Z,59.07
2023-02-15T20:48:18.202Z,59.27
2023-02-15T20:50:45.283Z,59.15
2023-02-15T20:53:12.509Z,58.37
2023-02-15T20:55:39.515Z,58.23
2023-02-15T20:58:18.727Z,58.19
2023-02-15T21:00:45.803Z,57.47
2023-02-15T21:03:13.305Z,58.35
2023-02-15T21:05:40.549Z,57.83
2023-02-15T21:08:16.047Z,57.50
2023-02-15T21:10:44.477Z,57.78
2023-02-15T21:13:25.248Z,57.59
2023-02-15T21:15:54.187Z,57.42
2023-02-15T21:18:26.765Z,57.78
2023-02-15T21:21:00.418Z,57.96
2023-02-15T21:23:33.740Z,57.86
2023-02-15T21:26:01.371Z,57.92
2023-02-15T21:28:29.435Z,58.46
2023-02-15T21:30:58.354Z,58.96
2023-02-15T21:33:26.330Z,58.80
2023-02-15T21:35:56.405Z,60.43
2023-02-15T21:38:26.020Z,60.09
2023-02-15T21:40:52.986Z,59.72
2023-02-15T21:43:25.532Z,59.57
2023-02-15T21:45:52.986Z,60.26
2023-02-15T21:48:19.804Z,59.31
2023-02-15T21:50:46.917Z,59.18
2023-02-15T21:53:21.879Z,59.13
2023-02-15T21:55:49.696Z,58.70
2023-02-15T21:58:21.180Z,58.42
2023-02-15T22:00:49.151Z,58.50
2023-02-15T22:03:17.390Z,58.71
2023-02-15T22:05:44.476Z,58.54
2023-02-15T22:08:13.120Z,58.29
2023-02-15T22:10:41.088Z,59.29
2023-02-15T22:13:19.964Z,58.73
2023-02-15T22:15:47.272Z,58.15
2023-02-15T22:18:26.519Z,58.39
2023-02-15T22:20:54.529Z,57.94
2023-02-15T22:23:22.902Z,58.27
2023-02-15T22:25:57.303Z,58.59
2023-02-15T22:28:33.192Z,58.49
2023-02-15T22:31:01.680Z,59.46
2023-02-15T22:33:31.536Z,60.20
2023-02-15T22:35:59.160Z,60.99
2023-02-15T22:38:26.586Z,60.14
2023-02-15T22:40:57.506Z,60.24
2023-02-15T22:43:39.772Z,60.40
2023-02-15T22:46:33.161Z,60.69
2023-02-15T22:49:00.229Z,60.42
2023-02-15T22:51:27.085Z,61.13
2023-02-15T22:53:54.095Z,60.26
2023-02-15T22:56:36.969Z,61.20
2023-02-15T22:59:07.816Z,61.69
2023-02-15T23:01:38.215Z,62.20
2023-02-15T23:04:05.374Z,61.19
2023-02-15T23:06:34.012Z,61.75
2023-02-15T23:09:00.999Z,61.16
2023-02-15T23:11:28.433Z,61.29
2023-02-15T23:13:55.321Z,60.83
2023-02-15T23:16:22.326Z,61.25
2023-02-15T23:18:49.295Z,62.41
2023-02-15T23:21:29.048Z,61.79
2023-02-15T23:23:59.282Z,61.38
2023-02-15T23:26:29.677Z,61.48
2023-02-15T23:28:59.916Z,61.61
2023-02-15T23:31:36.225Z,61.16
2023-02-15T23:34:16.865Z,61.25
2023-02-15T23:36:44.068Z,60.31
2023-02-15T23:39:37.063Z,60.88
2023-02-15T23:42:09.481Z,59.82
2023-02-15T23:44:37.501Z,60.85
2023-02-15T23:47:06.192Z,60.26
2023-02-15T23:49:33.284Z,59.73
2023-02-15T23:52:01.609Z,60.12
2023-02-15T23:54:28.666Z,60.85
2023-02-15T23:57:00.093Z,59.81
2023-02-15T23:59:30.184Z,60.16
